createdAt,value
2022-08-22T00:08:53.763Z,1.92
2022-08-22T00:19:04.966Z,1.77
2022-08-22T00:29:13.113Z,2.00
2022-08-22T00:39:22.359Z,1.85
2022-08-22T00:49:44.392Z,1.60
2022-08-22T01:00:04.119Z,2.10
2022-08-22T01:10:22.490Z,1.60
2022-08-22T01:20:55.918Z,1.70
2022-08-22T01:31:18.634Z,2.05
2022-08-22T01:41:39.523Z,1.75
2022-08-22T01:51:47.500Z,1.80
2022-08-22T02:01:59.917Z,1.80
2022-08-22T02:12:23.769Z,1.60
2022-08-22T02:22:44.347Z,2.08
2022-08-22T02:33:00.554Z,1.83
2022-08-22T02:43:20.660Z,1.92
2022-08-22T02:53:30.299Z,2.00
2022-08-22T03:03:40.847Z,2.10
2022-08-22T03:13:51.480Z,2.03
2022-08-22T03:23:59.495Z,2.30
2022-08-22T03:34:22.634Z,1.87
2022-08-22T03:45:02.477Z,2.40
2022-08-22T03:55:20.586Z,1.92
2022-08-22T04:05:39.612Z,2.45
2022-08-22T04:16:05.265Z,2.33
2022-08-22T04:26:13.795Z,2.20
2022-08-22T04:36:21.465Z,2.47
2022-08-22T04:46:39.480Z,2.50
2022-08-22T04:56:54.496Z,2.42
2022-08-22T05:07:07.502Z,2.30
2022-08-22T05:17:15.501Z,2.60
2022-08-22T05:27:25.107Z,2.90
2022-08-22T05:37:35.556Z,2.42
2022-08-22T05:47:43.062Z,3.03
2022-08-22T05:57:50.182Z,2.80
2022-08-22T06:07:59.838Z,2.70
2022-08-22T06:18:20.880Z,2.40
2022-08-22T06:28:27.210Z,3.03
2022-08-22T06:38:33.528Z,3.25
2022-08-22T06:48:38.296Z,3.30
2022-08-22T06:58:43.882Z,3.42
2022-08-22T07:08:54.729Z,3.58
2022-08-22T07:29:10.326Z,4.00
2022-08-22T07:39:24.281Z,3.87
2022-08-22T07:49:33.407Z,4.05
2022-08-22T07:59:44.653Z,4.80
2022-08-22T08:09:52.291Z,5.12
2022-08-22T08:19:56.833Z,5.25
2022-08-22T08:30:04.103Z,5.30
2022-08-22T08:40:17.958Z,6.10
2022-08-22T08:50:34.248Z,5.65
2022-08-22T09:00:51.958Z,5.85
2022-08-22T09:11:31.085Z,5.93
2022-08-22T09:22:19.652Z,6.28
2022-08-22T09:32:35.446Z,6.07
2022-08-22T09:42:46.454Z,6.37
2022-08-22T09:52:56.909Z,6.32
2022-08-22T10:03:06.438Z,6.00
2022-08-22T10:13:20.021Z,5.60
2022-08-22T10:23:29.720Z,4.80
2022-08-22T10:33:39.719Z,4.37
2022-08-22T10:43:56.580Z,4.87
2022-08-22T10:54:38.283Z,4.60
2022-08-22T11:04:55.532Z,4.70
2022-08-22T11:15:07.528Z,4.32
2022-08-22T11:25:38.622Z,4.15
2022-08-22T11:35:56.010Z,4.35
2022-08-22T11:46:02.121Z,4.82
2022-08-22T11:56:17.547Z,3.80
2022-08-22T12:06:51.756Z,3.95
2022-08-22T12:17:28.562Z,4.78
2022-08-22T12:28:08.260Z,4.40
2022-08-22T12:38:29.740Z,3.63
2022-08-22T12:48:53.386Z,4.28
2022-08-22T12:59:33.748Z,4.30
2022-08-22T13:09:39.303Z,4.12
2022-08-22T13:19:55.604Z,4.03
2022-08-22T13:30:01.305Z,4.72
2022-08-22T13:40:10.226Z,4.30
2022-08-22T13:50:20.316Z,4.30
2022-08-22T14:01:08.996Z,4.10
2022-08-22T14:11:21.628Z,4.18
2022-08-22T14:21:40.119Z,4.00
2022-08-22T14:31:56.946Z,4.82
2022-08-22T14:42:10.049Z,4.45
2022-08-22T14:52:33.294Z,4.20
2022-08-22T15:02:36.886Z,4.25
2022-08-22T15:12:47.694Z,4.45
2022-08-22T15:22:53.171Z,3.28
2022-08-22T15:33:10.001Z,3.10
2022-08-22T15:43:23.425Z,3.10
2022-08-22T15:53:31.397Z,3.70
2022-08-22T16:03:43.775Z,9.43
2022-08-22T16:13:48.507Z,3.20
2022-08-22T16:24:29.691Z,3.75
2022-08-22T16:34:43.947Z,2.87
2022-08-22T16:44:47.990Z,1.23
2022-08-22T16:54:53.895Z,1.77
2022-08-22T17:05:11.426Z,1.80
2022-08-22T17:15:26.258Z,1.80
2022-08-22T17:25:35.926Z,2.67
2022-08-22T17:35:50.476Z,2.10
2022-08-22T17:46:06.643Z,1.92
2022-08-22T17:56:21.457Z,2.20
2022-08-22T18:06:28.996Z,2.40
2022-08-22T18:16:37.150Z,2.28
2022-08-22T18:26:46.071Z,2.30
2022-08-22T18:36:55.900Z,2.45
2022-08-22T18:47:00.972Z,2.57
2022-08-22T18:57:09.204Z,2.40
2022-08-22T19:07:53.944Z,3.15
2022-08-22T19:18:16.821Z,2.70
2022-08-22T19:28:29.783Z,2.28
2022-08-22T19:39:03.400Z,2.00
2022-08-22T19:49:28.352Z,2.03
2022-08-22T19:59:51.356Z,2.05
2022-08-22T20:10:09.133Z,1.67
2022-08-22T20:20:41.702Z,2.05
2022-08-22T20:30:51.146Z,2.20
2022-08-22T20:41:01.691Z,2.15
2022-08-22T20:51:07.457Z,2.10
2022-08-22T21:01:14.018Z,1.90
2022-08-22T21:11:41.818Z,2.17
2022-08-22T21:21:47.304Z,2.25
2022-08-22T21:31:53.154Z,2.00
2022-08-22T21:42:13.249Z,1.85
2022-08-22T21:52:28.576Z,1.30
2022-08-22T22:02:37.294Z,1.48
2022-08-22T22:12:42.133Z,1.73
2022-08-22T22:22:48.643Z,1.85
2022-08-22T22:32:55.330Z,2.03
2022-08-22T22:43:04.306Z,2.00
2022-08-22T22:53:12.460Z,2.00
2022-08-22T23:03:27.887Z,2.10
2022-08-22T23:13:36.700Z,2.30
2022-08-22T23:23:49.525Z,1.90
2022-08-22T23:33:57.270Z,2.17
2022-08-22T23:44:08.495Z,2.30
2022-08-22T23:54:22.185Z,2.30
